Flight Track Log - Related Links

Times and Time Zones

All times are in EDT time to prevent confusion due to time zone crossing. See the ASQ5745 flight status page for this flight to view local times or setup timezone preferences in your user account.

Time Position Orientation Groundspeed Altitude Reporting Facility
EDT Latitude Longitude Course Direction KTS MPH feet Rate Location/Type
Tue 07:07:49 PM 39.8964 -84.2442 323° Northwest 141 162 1,500  Level Indianapolis Center
Tue 07:08:53 PM 39.9147 -84.3042 292° West 191 220 3,500 1,957 Climbing Indianapolis Center
Tue 07:09:21 PM 39.9425 -84.3236 332° Northwest 224 258 4,500 1,839 Climbing Indianapolis Center
Tue 07:09:55 PM 39.9733 -84.3481 329° Northwest 226 260 5,400 2,063 Climbing Indianapolis Center
Tue 07:10:57 PM 40.0361 -84.4003 328° Northwest 253 291 7,800 2,468 Climbing Indianapolis Center
Tue 07:11:00 PM 40.1247 -84.4246 323° Northwest  Level FlightAware
Tue 07:11:59 PM 40.1000 -84.4525 328° Northwest 264 304 10,500  Level Indianapolis Center
Tue 07:12:00 PM 40.1801 -84.4800 323° Northwest  Level FlightAware
Tue 07:13:00 PM 40.2355 -84.5354 323° Northwest  Level FlightAware
Tue 07:13:01 PM 40.1633 -84.5056 327° Northwest 267 307 12,300  Level Indianapolis Center
Tue 07:14:03 PM 40.2333 -84.5647 327° Northwest 288 331 13,900 1,645 Climbing Indianapolis Center
Tue 07:15:05 PM 40.3067 -84.6186 331° Northwest 301 346 15,700 1,984 Climbing Indianapolis Center
Tue 07:16:07 PM 40.4097 -84.6208 359° North 310 357 18,000 1,742 Climbing Indianapolis Center
Tue 07:17:09 PM 40.4956 -84.6192 North 308 354 19,300 1,113 Climbing Indianapolis Center
Tue 07:18:11 PM 40.5869 -84.6139 North 321 369 20,300 726 Climbing Indianapolis Center
Tue 07:19:13 PM 40.6828 -84.6133 360° North 339 390 20,800 532 Climbing Indianapolis Center
Tue 07:20:15 PM 40.7678 -84.6650 335° Northwest 346 398 21,400 706 Climbing Indianapolis Center
Tue 07:20:38 PM 40.8008 -84.6958 325° Northwest 340 391 21,800 424 Climbing Chicago Center
Tue 07:21:40 PM 40.8808 -84.7703 325° Northwest 348 400 22,000 97 Climbing Chicago Center
Tue 07:22:42 PM 40.9631 -84.8472 325° Northwest 358 412 22,000  Level Chicago Center
Tue 07:23:44 PM 41.0453 -84.9222 325° Northwest 359 413 22,000  Level Chicago Center
Tue 07:24:46 PM 41.1278 -84.9997 325° Northwest 362 417 22,000  Level Chicago Center
Tue 07:25:49 PM 41.2267 -85.0972 323° Northwest 367 422 22,000  Level Chicago Center
Tue 07:26:51 PM 41.2944 -85.1967 312° West 365 420 22,000  Level Chicago Center
Tue 07:27:53 PM 41.3178 -85.3314 283° West 375 432 22,000  Level Chicago Center
Tue 07:28:55 PM 41.3347 -85.4633 280° West 363 418 22,000  Level Chicago Center
Tue 07:29:57 PM 41.3531 -85.5967 280° West 362 417 22,000  Level Chicago Center
Tue 07:30:59 PM 41.3700 -85.7331 279° West 369 425 22,000  Level Chicago Center
Tue 07:32:01 PM 41.3881 -85.8689 280° West 371 427 22,000  Level Chicago Center
Tue 07:33:03 PM 41.4100 -86.0358 280° West 379 436 22,000  Level Chicago Center
Tue 07:34:05 PM 41.4319 -86.1758 282° West 385 443 22,000 -145 Level Chicago Center
Tue 07:35:07 PM 41.4781 -86.2994 297° West 374 430 21,700 -1,452 Descending Chicago Center
Tue 07:36:09 PM 41.5219 -86.4172 296° West 358 412 19,000 -2,565 Descending Chicago Center
Tue 07:37:11 PM 41.5656 -86.5361 296° West 356 410 16,400 -2,516 Descending Chicago Center
Tue 07:38:13 PM 41.6067 -86.6511 296° West 347 399 13,800 -2,064 Descending Chicago Center
Tue 07:39:16 PM 41.6564 -86.7714 299° West 336 387 12,100 -816 Descending Chicago Center
Tue 07:40:18 PM 41.7419 -86.8031 345° North 332 382 12,100 -97 Level Chicago Center
Tue 07:41:20 PM 41.8350 -86.8222 351° North 338 389 11,900 -774 Descending Chicago Center
Tue 07:42:22 PM 41.9242 -86.8975 328° Northwest 326 375 10,500 -871 Descending Chicago Center
Tue 07:43:24 PM 41.9497 -87.0128 287° West 325 374 10,100 -242 Descending Chicago Center
Tue 07:44:26 PM 41.9692 -87.1272 283° West 321 369 10,000 -484 Descending Chicago Center
Tue 07:45:28 PM 41.9819 -87.2236 280° West 264 304 9,100 -1,065 Descending Chicago Center
Tue 07:46:30 PM 41.9828 -87.3178 271° West 256 295 7,800 -1,016 Descending Chicago Center
Tue 07:47:32 PM 41.9828 -87.4361 270° West 265 305 7,000 -1,008 Descending Chicago Center
Tue 07:48:35 PM 41.9836 -87.5336 271° West 265 305 5,700 -1,248 Descending Chicago Center
Tue 07:49:37 PM 41.9839 -87.6272 270° West 256 295 4,400 -1,258 Descending Chicago Center

Login

Don't have an account? Register now (free) for customized features, flight alerts, and more!